Time;durP1;ratioP1;P1;durP2;ratioP2;P2;SDS_P1;SDS_P2;PMS_P1;PMS_P2;Temp;Humidity;BMP_temperature;BMP_pressure;BME280_temperature;BME280_humidity;BME280_pressure;Samples;Min_cycle;Max_cycle;Signal;HPM_P1;HPM_P2
2022/09/17 00:01:52;;;;;;;8.88;5.57;;;;;;;8.28;100.00;98460.53;5115315;28;20027;-80
2022/09/17 00:04:17;;;;;;;5.63;4.53;;;;;;;8.33;100.00;98474.06;5115358;28;20368;-80
2022/09/17 00:06:43;;;;;;;4.10;3.70;;;;;;;8.31;100.00;98467.31;5115374;28;20043;-80
2022/09/17 00:09:08;;;;;;;7.22;3.72;;;;;;;8.21;100.00;98454.00;5115426;28;20016;-80
2022/09/17 00:11:36;;;;;;;10.43;3.65;;;;;;;8.15;100.00;98472.50;5115133;28;20020;-80
2022/09/17 00:14:03;;;;;;;5.32;3.75;;;;;;;8.17;100.00;98475.84;5115059;28;20364;-80
2022/09/17 00:16:28;;;;;;;6.30;3.83;;;;;;;8.12;100.00;98476.09;5114865;28;20130;-80
2022/09/17 00:18:54;;;;;;;4.22;3.47;;;;;;;7.99;100.00;98460.38;5114973;28;20094;-80
2022/09/17 00:21:20;;;;;;;6.80;4.07;;;;;;;8.04;100.00;98470.50;5114978;28;20032;-80
2022/09/17 00:23:46;;;;;;;5.10;3.83;;;;;;;7.94;100.00;98464.16;5114754;28;20372;-80
2022/09/17 00:26:11;;;;;;;4.55;3.50;;;;;;;7.94;100.00;98475.34;5115223;28;20019;-80
2022/09/17 00:28:37;;;;;;;6.43;3.47;;;;;;;7.95;100.00;98471.84;5114867;28;20529;-80
2022/09/17 00:31:08;;;;;;;3.88;3.53;;;;;;;7.95;100.00;98469.25;5114826;28;20030;-80
2022/09/17 00:33:33;;;;;;;6.25;3.92;;;;;;;7.88;100.00;98461.88;5114470;28;20027;-80
2022/09/17 00:36:01;;;;;;;4.35;3.95;;;;;;;7.93;100.00;98470.25;5114900;28;20487;-80
2022/09/17 00:38:27;;;;;;;4.97;3.90;;;;;;;7.92;100.00;98460.78;5114964;28;20039;-80
2022/09/17 00:40:52;;;;;;;4.50;4.00;;;;;;;7.91;100.00;98465.13;5114667;28;20028;-80
2022/09/17 00:43:39;;;;;;;5.65;4.28;;;;;;;7.91;100.00;98464.31;5114393;28;20491;-80
2022/09/17 00:46:14;;;;;;;6.85;4.30;;;;;;;7.92;100.00;98460.78;5114352;28;20020;-80
2022/09/17 00:48:40;;;;;;;5.63;3.72;;;;;;;7.93;100.00;98454.72;5114727;28;20016;-80
2022/09/17 00:51:09;;;;;;;7.40;4.13;;;;;;;7.94;100.00;98449.44;5114525;28;20031;-80
2022/09/17 00:53:35;;;;;;;5.30;4.05;;;;;;;8.03;100.00;98458.44;5114205;28;20066;-80
2022/09/17 00:56:06;;;;;;;4.57;4.07;;;;;;;7.98;100.00;98442.31;5114331;28;20019;-80
2022/09/17 00:58:35;;;;;;;4.78;3.72;;;;;;;8.10;100.00;98454.59;5113949;28;20016;-80
2022/09/17 01:01:00;;;;;;;4.78;3.67;;;;;;;8.14;100.00;98455.28;5114256;28;20024;-80
2022/09/17 01:03:26;;;;;;;4.82;3.92;;;;;;;8.15;100.00;98455.19;5114107;28;20027;-80
2022/09/17 01:06:16;;;;;;;5.88;3.83;;;;;;;8.21;100.00;98451.41;5112739;28;20036;-80
2022/09/17 01:08:42;;;;;;;6.10;4.35;;;;;;;8.23;100.00;98453.00;5070882;28;20426;-80
2022/09/17 01:11:28;;;;;;;10.75;4.40;;;;;;;8.17;100.00;98445.53;5070913;28;20378;-80
2022/09/17 01:14:28;;;;;;;6.35;3.85;;;;;;;8.23;100.00;98454.75;5070909;28;20044;-80
2022/09/17 01:17:21;;;;;;;7.78;4.30;;;;;;;8.19;100.00;98445.47;5070943;28;20032;-80
2022/09/17 01:19:49;;;;;;;4.88;4.15;;;;;;;8.24;100.00;98452.06;5070754;28;20044;-80
2022/09/17 01:22:23;;;;;;;6.90;4.90;;;;;;;8.23;100.00;98446.97;5070738;28;20028;-80
2022/09/17 01:25:13;;;;;;;10.57;4.05;;;;;;;8.23;100.00;98450.41;5070698;28;20092;-80
2022/09/17 01:28:03;;;;;;;5.35;3.88;;;;;;;8.22;100.00;98447.91;5070515;28;20056;-80
2022/09/17 01:30:37;;;;;;;5.63;3.65;;;;;;;8.21;100.00;98446.22;5070528;28;20044;-80
2022/09/17 01:33:25;;;;;;;4.93;3.65;;;;;;;8.19;100.00;98446.31;5070466;28;20032;-80
2022/09/17 01:36:16;;;;;;;7.43;3.88;;;;;;;8.22;100.00;98440.13;5069772;28;20032;-80
2022/09/17 01:38:55;;;;;;;5.70;3.80;;;;;;;8.21;100.00;98428.88;5070244;28;20488;-80
2022/09/17 01:41:32;;;;;;;7.00;3.45;;;;;;;8.25;100.00;98435.56;5070399;28;20108;-80
2022/09/17 01:44:44;;;;;;;4.03;3.42;;;;;;;8.30;100.00;98429.28;5070358;28;20025;-80
2022/09/17 01:47:18;;;;;;;6.97;3.15;;;;;;;8.29;100.00;98418.09;5113427;27;20479;-80
2022/09/17 01:49:44;;;;;;;5.53;3.25;;;;;;;8.35;100.00;98422.94;5113264;28;20018;-80
2022/09/17 01:52:13;;;;;;;6.85;3.08;;;;;;;8.43;100.00;98425.13;5113471;27;20034;-80
2022/09/17 01:54:48;;;;;;;5.18;2.40;;;;;;;8.35;100.00;98399.59;5112912;28;20030;-80
2022/09/17 01:57:28;;;;;;;7.13;2.42;;;;;;;8.54;100.00;98427.09;5113328;28;20027;-80
2022/09/17 02:00:02;;;;;;;3.65;2.30;;;;;;;8.56;100.00;98427.84;5113276;28;20431;-80
2022/09/17 02:02:52;;;;;;;4.50;2.50;;;;;;;8.58;100.00;98428.59;5112748;28;20361;-80
2022/09/17 02:05:55;;;;;;;4.45;2.63;;;;;;;8.57;100.00;98419.13;5112710;28;20392;-80
2022/09/17 02:08:27;;;;;;;5.15;2.40;;;;;;;8.53;100.00;98420.25;5069715;28;20028;-80
2022/09/17 02:11:10;;;;;;;7.18;2.85;;;;;;;8.57;100.00;98414.78;5069899;28;20095;-80
2022/09/17 02:14:02;;;;;;;3.47;2.30;;;;;;;8.60;100.00;98425.00;5069578;28;20036;-80
2022/09/17 02:16:43;;;;;;;4.57;2.63;;;;;;;8.59;100.00;98405.13;5069533;28;20032;-80
2022/09/17 02:19:23;;;;;;;5.32;2.40;;;;;;;8.74;100.00;98417.22;5069733;28;20037;-80
2022/09/17 02:22:21;;;;;;;3.67;2.33;;;;;;;8.90;100.00;98419.75;5069659;28;20525;-80
2022/09/17 02:24:59;;;;;;;6.82;2.63;;;;;;;8.96;100.00;98423.75;5070003;28;20029;-80
2022/09/17 02:27:57;;;;;;;4.28;2.28;;;;;;;8.96;100.00;98405.56;5069342;28;20063;-80
2022/09/17 02:30:23;;;;;;;3.45;2.55;;;;;;;9.06;100.00;98411.03;5069422;28;20112;-80
2022/09/17 02:32:49;;;;;;;4.57;2.30;;;;;;;9.13;100.00;98414.94;5069536;28;20127;-80
2022/09/17 02:35:14;;;;;;;5.30;2.55;;;;;;;9.14;100.00;98409.66;5069447;28;20028;-80
2022/09/17 02:37:41;;;;;;;3.35;2.38;;;;;;;9.31;100.00;98437.19;5069406;28;20035;-80
2022/09/17 02:40:08;;;;;;;4.78;2.35;;;;;;;9.36;100.00;98435.19;5052780;28;20028;-80
2022/09/17 02:42:46;;;;;;;2.13;1.90;;;;;;;9.42;100.00;98439.16;5069256;28;20055;-80
2022/09/17 02:45:14;;;;;;;3.85;2.10;;;;;;;9.48;100.00;98444.81;5092172;28;20036;-80
2022/09/17 02:48:01;;;;;;;5.25;2.35;;;;;;;9.53;100.00;98435.91;5112043;28;20051;-80
2022/09/17 02:50:48;;;;;;;5.70;2.20;;;;;;;9.57;100.00;98427.00;5112136;28;20019;-80
2022/09/17 02:53:30;;;;;;;4.13;2.20;;;;;;;9.59;100.00;98425.94;5112297;28;20025;-80
2022/09/17 02:56:23;;;;;;;4.80;2.30;;;;;;;9.61;100.00;98426.72;5112462;28;20031;-80
2022/09/17 02:59:08;;;;;;;3.78;2.38;;;;;;;9.63;100.00;98427.44;5112324;28;20426;-80
2022/09/17 03:02:21;;;;;;;4.47;2.25;;;;;;;9.67;100.00;98428.06;5111964;28;20034;-80
2022/09/17 03:04:48;;;;;;;2.72;2.15;;;;;;;9.64;100.00;98413.50;5068845;28;20032;-80
2022/09/17 03:07:15;;;;;;;7.28;2.05;;;;;;;9.68;100.00;98425.38;5069351;28;20036;-80
2022/09/17 03:09:42;;;;;;;5.47;2.00;;;;;;;9.67;100.00;98418.50;5068941;28;20085;-80
2022/09/17 03:12:08;;;;;;;4.32;2.03;;;;;;;9.68;100.00;98411.53;5069182;28;20440;-80
2022/09/17 03:14:34;;;;;;;7.25;2.55;;;;;;;9.74;100.00;98422.41;5069144;28;20072;-80
2022/09/17 03:17:00;;;;;;;3.15;2.30;;;;;;;9.73;100.00;98412.94;5069168;28;20126;-80
2022/09/17 03:19:26;;;;;;;5.57;2.47;;;;;;;9.76;100.00;98414.50;5068950;28;20107;-80
2022/09/17 03:21:52;;;;;;;3.47;2.35;;;;;;;9.71;100.00;98408.75;5069129;28;20205;-80
2022/09/17 03:24:17;;;;;;;6.78;2.78;;;;;;;9.82;100.00;98414.13;5069315;28;20099;-80
2022/09/17 03:26:43;;;;;;;4.97;2.10;;;;;;;9.84;100.00;98420.06;5068762;28;20401;-80
2022/09/17 03:29:08;;;;;;;5.70;2.50;;;;;;;9.87;100.00;98416.44;5068948;28;20090;-80
2022/09/17 03:31:34;;;;;;;3.05;2.60;;;;;;;9.73;100.00;98397.34;5068828;28;20021;-80
2022/09/17 03:33:59;;;;;;;4.30;2.47;;;;;;;9.83;100.00;98408.00;5068961;28;20028;-80
2022/09/17 03:36:25;;;;;;;4.50;2.30;;;;;;;9.86;100.00;98412.13;5068744;28;20566;-80
2022/09/17 03:38:56;;;;;;;4.15;2.10;;;;;;;9.84;100.00;98412.25;5068868;28;20028;-80
2022/09/17 03:41:22;;;;;;;6.10;2.70;;;;;;;9.90;100.00;98411.88;5112125;28;20027;-80
2022/09/17 03:43:47;;;;;;;8.43;2.90;;;;;;;9.90;100.00;98411.88;5111810;28;20027;-80
2022/09/17 03:46:13;;;;;;;3.35;2.42;;;;;;;9.91;100.00;98412.72;5110695;28;20019;-80
2022/09/17 03:48:38;;;;;;;4.82;2.55;;;;;;;9.91;100.00;98407.50;5111642;28;20055;-80
2022/09/17 03:51:04;;;;;;;4.32;2.50;;;;;;;9.96;100.00;98408.88;5111830;28;20016;-80
2022/09/17 03:53:30;;;;;;;6.00;3.03;;;;;;;9.97;100.00;98401.91;5111558;28;20019;-80
2022/09/17 03:56:01;;;;;;;4.82;2.60;;;;;;;10.00;100.00;98401.72;5112067;28;20539;-80
2022/09/17 03:58:28;;;;;;;5.38;2.42;;;;;;;9.99;100.00;98403.47;5112425;28;20105;-80
2022/09/17 04:00:56;;;;;;;5.30;3.00;;;;;;;10.04;100.00;98405.78;5115380;28;20032;-80
2022/09/17 04:03:25;;;;;;;3.03;2.40;;;;;;;10.04;100.00;98407.56;5115445;28;20023;-80
2022/09/17 04:05:50;;;;;;;5.53;2.70;;;;;;;10.04;100.00;98405.78;5114916;28;20509;-80
2022/09/17 04:08:16;;;;;;;6.18;2.67;;;;;;;10.11;100.00;98414.88;5113829;28;20023;-80
2022/09/17 04:10:43;;;;;;;6.88;2.78;;;;;;;10.08;100.00;98412.47;5115187;28;20015;-80
2022/09/17 04:13:09;;;;;;;5.07;2.72;;;;;;;10.16;100.00;98427.59;5115319;28;20020;-80
2022/09/17 04:15:35;;;;;;;8.55;2.70;;;;;;;10.12;100.00;98418.31;5114966;28;20078;-80
2022/09/17 04:18:00;;;;;;;7.00;2.92;;;;;;;10.12;100.00;98416.53;5115077;28;20023;-80
2022/09/17 04:20:27;;;;;;;3.75;2.47;;;;;;;10.19;100.00;98425.59;5115022;28;20036;-80
2022/09/17 04:22:52;;;;;;;5.53;3.20;;;;;;;10.15;100.00;98428.50;5115243;28;20456;-80
2022/09/17 04:25:18;;;;;;;4.32;2.72;;;;;;;10.08;100.00;98419.44;5115116;28;20020;-80
2022/09/17 04:27:44;;;;;;;4.78;3.05;;;;;;;10.10;100.00;98423.59;5114875;28;20449;-80
2022/09/17 04:30:10;;;;;;;8.27;2.92;;;;;;;10.06;100.00;98423.88;5114888;28;20110;-80
2022/09/17 04:32:36;;;;;;;4.75;2.97;;;;;;;10.10;100.00;98430.56;5114526;28;20361;-80
2022/09/17 04:35:01;;;;;;;4.68;2.90;;;;;;;10.11;100.00;98427.88;5114744;28;20049;-80
2022/09/17 04:37:26;;;;;;;4.25;2.70;;;;;;;10.11;100.00;98429.63;5114604;28;20040;-79
2022/09/17 04:39:52;;;;;;;5.18;2.72;;;;;;;10.10;100.00;98438.38;5114435;28;20069;-80
2022/09/17 04:42:17;;;;;;;5.80;2.80;;;;;;;10.11;100.00;98432.22;5114781;28;20076;-80
2022/09/17 04:44:43;;;;;;;5.75;3.05;;;;;;;10.14;100.00;98425.06;5114709;28;20023;-80
2022/09/17 04:47:08;;;;;;;3.88;2.83;;;;;;;10.09;100.00;98421.09;5114583;27;20029;-80
2022/09/17 04:49:34;;;;;;;3.35;2.83;;;;;;;10.16;100.00;98419.78;5114160;28;20015;-80
2022/09/17 04:51:59;;;;;;;6.25;3.15;;;;;;;10.11;100.00;98414.88;5114377;28;20338;-80
2022/09/17 04:54:25;;;;;;;6.18;2.92;;;;;;;10.11;100.00;98408.81;5114856;28;20099;-80
2022/09/17 04:56:51;;;;;;;3.75;2.78;;;;;;;10.18;100.00;98426.53;5114264;28;20023;-80
2022/09/17 04:59:16;;;;;;;6.00;3.25;;;;;;;10.12;100.00;98415.72;5114423;28;20027;-80
2022/09/17 05:01:42;;;;;;;7.68;3.33;;;;;;;10.18;100.00;98429.13;5113991;28;20111;-80
2022/09/17 05:04:08;;;;;;;5.30;2.92;;;;;;;10.16;100.00;98423.22;5114192;28;20355;-80
2022/09/17 05:06:33;;;;;;;4.75;3.03;;;;;;;10.20;100.00;98422.09;5114171;28;20045;-80
2022/09/17 05:08:59;;;;;;;6.95;3.00;;;;;;;10.23;100.00;98426.22;5114047;28;20456;-80
2022/09/17 05:11:24;;;;;;;4.25;3.22;;;;;;;10.24;100.00;98422.72;5113348;28;20020;-80
2022/09/17 05:13:49;;;;;;;6.43;2.75;;;;;;;10.32;100.00;98430.03;5113913;28;20027;-80
2022/09/17 05:16:15;;;;;;;9.05;3.17;;;;;;;10.30;100.00;98431.91;5114063;28;20031;-80
2022/09/17 05:18:40;;;;;;;9.18;3.58;;;;;;;10.29;100.00;98435.47;5113645;28;20045;-80
2022/09/17 05:21:05;;;;;;;5.72;3.20;;;;;;;10.34;100.00;98438.59;5113856;27;20027;-80
2022/09/17 05:23:31;;;;;;;4.47;2.83;;;;;;;10.43;100.00;98436.22;5112547;28;20468;-80
2022/09/17 05:25:58;;;;;;;6.25;3.40;;;;;;;10.38;100.00;98429.66;5113731;28;20106;-80
2022/09/17 05:28:24;;;;;;;5.72;3.58;;;;;;;10.39;100.00;98431.31;5113771;28;20051;-80
2022/09/17 05:30:49;;;;;;;5.63;3.42;;;;;;;10.39;100.00;98431.31;5113475;28;20531;-80
2022/09/17 05:33:14;;;;;;;5.80;3.33;;;;;;;10.41;100.00;98424.25;5113957;28;20034;-80
2022/09/17 05:35:41;;;;;;;7.28;3.88;;;;;;;10.48;100.00;98434.16;5113329;28;20031;-80
2022/09/17 05:38:07;;;;;;;5.80;3.45;;;;;;;10.53;100.00;98438.22;5113686;28;20456;-80
2022/09/17 05:40:33;;;;;;;8.57;2.80;;;;;;;10.55;100.00;98436.38;5113373;28;20019;-80
2022/09/17 05:43:03;;;;;;;7.55;3.33;;;;;;;10.54;100.00;98434.69;5113484;28;20019;-80
2022/09/17 05:45:29;;;;;;;6.25;3.38;;;;;;;10.54;100.00;98422.50;5113442;28;20027;-80
2022/09/17 05:47:59;;;;;;;7.10;3.72;;;;;;;10.55;100.00;98418.13;5112985;28;20087;-80
2022/09/17 05:50:26;;;;;;;8.90;3.45;;;;;;;10.80;100.00;98435.56;5113277;28;20465;-80
2022/09/17 05:52:51;;;;;;;4.60;2.95;;;;;;;10.93;100.00;98424.22;5113216;28;20024;-80
2022/09/17 05:55:18;;;;;;;7.93;2.95;;;;;;;10.98;100.00;98424.72;5113314;28;20471;-80
2022/09/17 05:57:44;;;;;;;6.80;3.63;;;;;;;11.09;100.00;98428.41;5113026;28;20016;-81
2022/09/17 06:00:10;;;;;;;4.10;3.03;;;;;;;11.04;100.00;98420.91;5111781;28;20027;-80
2022/09/17 06:02:36;;;;;;;5.40;3.47;;;;;;;10.93;100.00;98407.75;5112797;28;20435;-81
2022/09/17 06:05:02;;;;;;;7.63;3.83;;;;;;;10.98;100.00;98419.53;5113058;28;20039;-80
2022/09/17 06:07:28;;;;;;;12.20;3.70;;;;;;;11.02;100.00;98434.97;5113189;28;20107;-81
2022/09/17 06:09:53;;;;;;;8.05;3.50;;;;;;;10.95;100.00;98432.75;5112711;28;20091;-81
2022/09/17 06:12:18;;;;;;;6.20;3.65;;;;;;;10.96;100.00;98439.66;5112954;28;20018;-81
2022/09/17 06:14:44;;;;;;;7.97;3.80;;;;;;;10.88;100.00;98426.31;5112614;28;20028;-81
2022/09/17 06:17:09;;;;;;;6.28;3.38;;;;;;;10.92;100.00;98450.38;5112719;28;20043;-81
2022/09/17 06:19:35;;;;;;;6.47;3.90;;;;;;;10.92;100.00;98445.16;5112725;28;20058;-81
2022/09/17 06:22:00;;;;;;;8.55;3.83;;;;;;;10.90;100.00;98440.03;5112550;28;20031;-81
2022/09/17 06:24:26;;;;;;;7.88;4.05;;;;;;;11.02;100.00;98447.97;5112805;28;20027;-81
2022/09/17 06:26:52;;;;;;;7.05;4.00;;;;;;;10.99;100.00;98441.19;5112534;28;20539;-81
2022/09/17 06:29:18;;;;;;;10.52;4.38;;;;;;;11.08;100.00;98435.38;5112749;28;20069;-80
2022/09/17 06:31:43;;;;;;;12.57;4.95;;;;;;;11.28;100.00;98449.63;5109831;28;20157;-81
2022/09/17 06:34:09;;;;;;;12.02;4.88;;;;;;;11.33;100.00;98439.72;5110126;28;20047;-81
2022/09/17 06:36:34;;;;;;;10.10;4.95;;;;;;;11.37;100.00;98446.41;5110350;28;20036;-81
2022/09/17 06:39:00;;;;;;;11.68;4.85;;;;;;;11.32;100.00;98440.66;5092786;28;20030;-81
2022/09/17 06:41:26;;;;;;;8.82;4.40;;;;;;;11.29;100.00;98448.69;5110021;28;20122;-81
2022/09/17 06:43:53;;;;;;;10.15;4.43;;;;;;;11.29;100.00;98450.47;5109817;28;20058;-81
2022/09/17 06:46:19;;;;;;;6.75;4.00;;;;;;;11.34;100.00;98461.44;5109917;28;20031;-80
2022/09/17 06:48:44;;;;;;;5.68;3.85;;;;;;;11.32;100.00;98456.31;5109705;28;20039;-81
2022/09/17 06:51:10;;;;;;;10.07;3.97;;;;;;;11.40;100.00;98464.44;5110251;28;20035;-81
2022/09/17 06:53:36;;;;;;;5.72;3.63;;;;;;;11.42;100.00;98464.34;5109910;28;20031;-80
2022/09/17 06:56:03;;;;;;;6.40;3.20;;;;;;;11.47;100.00;98463.09;5109991;28;20023;-81
2022/09/17 06:58:29;;;;;;;5.40;3.40;;;;;;;11.61;100.00;98458.69;5109909;28;20035;-81
2022/09/17 07:01:00;;;;;;;6.30;3.55;;;;;;;11.76;100.00;98456.78;5109443;28;20066;-81
2022/09/17 07:03:25;;;;;;;7.88;3.97;;;;;;;11.84;100.00;98472.75;5111647;28;20032;-81
2022/09/17 07:05:51;;;;;;;8.80;3.47;;;;;;;11.91;100.00;98477.44;5112007;28;20048;-81
2022/09/17 07:08:16;;;;;;;4.78;3.13;;;;;;;11.91;100.00;98463.56;5112266;28;20102;-81
2022/09/17 07:10:42;;;;;;;7.50;3.60;;;;;;;12.17;100.00;98472.94;5112017;28;20098;-80
2022/09/17 07:13:07;;;;;;;6.53;3.60;;;;;;;12.29;100.00;98468.63;5112149;28;20103;-81
2022/09/17 07:15:33;;;;;;;7.97;3.85;;;;;;;12.24;100.00;98479.41;5112009;28;20059;-81
2022/09/17 07:17:58;;;;;;;7.32;3.47;;;;;;;12.20;100.00;98482.34;5111896;28;20027;-81
2022/09/17 07:20:24;;;;;;;5.57;3.15;;;;;;;12.16;100.00;98481.72;5112287;28;20023;-81
2022/09/17 07:22:56;;;;;;;7.13;3.10;;;;;;;12.12;100.00;98480.28;5111947;28;20019;-81
2022/09/17 07:25:23;;;;;;;6.35;3.83;;;;;;;12.05;100.00;98471.25;5112167;28;20028;-80
2022/09/17 07:27:48;;;;;;;5.72;3.22;;;;;;;12.02;100.00;98475.84;5111815;28;20019;-81
2022/09/17 07:30:14;;;;;;;6.20;3.20;;;;;;;12.03;100.00;98474.91;5111863;28;20472;-81
2022/09/17 07:32:39;;;;;;;5.10;3.30;;;;;;;12.02;100.00;98481.91;5111975;28;20019;-81
2022/09/17 07:35:05;;;;;;;4.45;3.30;;;;;;;11.98;100.00;98475.22;5115787;28;20466;-81
2022/09/17 07:37:30;;;;;;;6.32;3.25;;;;;;;11.94;100.00;98479.81;5116061;28;20019;-81
2022/09/17 07:39:56;;;;;;;6.35;3.40;;;;;;;11.97;100.00;98490.06;5104223;28;20111;-81
2022/09/17 07:42:21;;;;;;;3.85;2.80;;;;;;;11.99;100.00;98503.81;5094146;28;20023;-81
2022/09/17 07:44:46;;;;;;;12.05;3.90;;;;;;;11.95;100.00;98497.13;5095391;28;20484;-81
2022/09/17 07:47:12;;;;;;;7.03;3.28;;;;;;;12.03;100.00;98516.66;5095553;28;20388;-80
2022/09/17 07:49:37;;;;;;;7.93;3.80;;;;;;;12.02;100.00;98520.22;5095375;28;20031;-80
2022/09/17 07:52:05;;;;;;;6.20;4.00;;;;;;;12.03;100.00;98532.31;5094980;28;20023;-80
2022/09/17 07:54:31;;;;;;;7.78;3.72;;;;;;;12.01;100.00;98536.78;5095191;28;20154;-80
2022/09/17 07:56:56;;;;;;;8.50;3.55;;;;;;;11.92;100.00;98523.44;5093625;28;20059;-80
2022/09/17 07:59:22;;;;;;;4.90;2.90;;;;;;;11.90;100.00;98521.91;5094931;28;20561;-80
2022/09/17 08:01:47;;;;;;;5.18;3.10;;;;;;;12.03;100.00;98547.97;5095140;28;20031;-80
2022/09/17 08:04:13;;;;;;;7.10;3.35;;;;;;;12.06;100.00;98548.59;5095193;28;20032;-80
2022/09/17 08:06:39;;;;;;;4.40;3.55;;;;;;;12.04;100.00;98542.63;5094979;28;20051;-80
2022/09/17 08:09:06;;;;;;;7.50;3.80;;;;;;;12.03;100.00;98551.41;5094620;28;20032;-80
2022/09/17 08:11:32;;;;;;;8.73;4.20;;;;;;;12.02;100.00;98544.53;5094882;28;20031;-80
2022/09/17 08:13:58;;;;;;;7.05;3.67;;;;;;;11.98;100.00;98533.47;5094425;28;20044;-80
2022/09/17 08:16:24;;;;;;;6.40;3.60;;;;;;;12.05;100.00;98538.25;5094965;28;20538;-80
2022/09/17 08:18:55;;;;;;;9.25;3.88;;;;;;;12.04;100.00;98534.81;5094639;28;20031;-80
2022/09/17 08:21:20;;;;;;;5.93;3.60;;;;;;;12.05;100.00;98523.44;5094838;28;20027;-80
2022/09/17 08:23:46;;;;;;;6.97;3.40;;;;;;;12.09;100.00;98529.25;5094439;28;20023;-80
2022/09/17 08:26:13;;;;;;;5.00;3.55;;;;;;;12.15;100.00;98534.06;5094540;28;20115;-80
2022/09/17 08:28:39;;;;;;;7.20;3.83;;;;;;;12.19;100.00;98541.56;5094641;28;20055;-80
2022/09/17 08:31:07;;;;;;;8.00;4.45;;;;;;;12.19;100.00;98531.13;5094412;28;20051;-80
2022/09/17 08:33:36;;;;;;;6.40;3.13;;;;;;;12.16;100.00;98525.28;5094557;28;20016;-80
2022/09/17 08:36:03;;;;;;;10.05;4.13;;;;;;;12.21;100.00;98533.59;5094123;28;20016;-80
2022/09/17 08:38:32;;;;;;;5.00;3.30;;;;;;;12.13;100.00;98525.50;5094327;28;20032;-80
2022/09/17 08:41:06;;;;;;;8.00;3.20;;;;;;;12.30;100.00;98543.38;5106719;28;20028;-80
2022/09/17 08:44:06;;;;;;;6.22;3.45;;;;;;;12.35;100.00;98541.31;5115091;28;20028;-80
2022/09/17 08:46:39;;;;;;;6.55;3.80;;;;;;;12.60;100.00;98529.94;5071573;28;20028;-80
2022/09/17 08:49:32;;;;;;;6.15;3.33;;;;;;;12.98;100.00;98528.91;5071209;28;20171;-80
2022/09/17 08:52:35;;;;;;;7.05;3.92;;;;;;;13.42;100.00;98527.34;5071112;28;20028;-80
2022/09/17 08:55:37;;;;;;;9.82;3.67;;;;;;;13.78;100.00;98530.69;5071013;28;20078;-80
2022/09/17 08:58:18;;;;;;;7.25;3.72;;;;;;;13.78;98.90;98515.84;5071052;28;20039;-80
2022/09/17 09:00:47;;;;;;;6.40;3.60;;;;;;;13.56;98.95;98510.59;5071385;28;20036;-80
2022/09/17 09:03:36;;;;;;;6.78;3.50;;;;;;;13.43;99.50;98519.38;5071282;28;20108;-80
2022/09/17 09:06:02;;;;;;;6.45;3.80;;;;;;;13.26;99.70;98498.09;5070680;28;20060;-80
2022/09/17 09:08:34;;;;;;;5.60;3.65;;;;;;;13.23;100.00;98520.06;5071002;28;20094;-81
2022/09/17 09:11:25;;;;;;;5.20;3.70;;;;;;;13.22;100.00;98516.59;5070773;28;20044;-81
2022/09/17 09:13:56;;;;;;;7.57;4.03;;;;;;;13.22;100.00;98515.75;5070863;28;20310;-80
2022/09/17 09:16:26;;;;;;;7.32;3.85;;;;;;;13.22;100.00;98524.44;5070805;28;20041;-82
2022/09/17 09:18:58;;;;;;;6.38;3.97;;;;;;;13.18;100.00;98527.38;5070602;28;20035;-82
2022/09/17 09:21:27;;;;;;;7.38;4.43;;;;;;;13.09;100.00;98539.38;5070833;28;20028;-81
2022/09/17 09:24:15;;;;;;;7.47;3.80;;;;;;;13.02;100.00;98532.94;5105384;27;20031;-81
2022/09/17 09:26:57;;;;;;;4.97;3.80;;;;;;;12.96;100.00;98536.84;5131668;27;20019;-82
2022/09/17 09:29:27;;;;;;;7.38;4.25;;;;;;;12.92;100.00;98542.41;5113766;28;20330;-81
2022/09/17 09:32:37;;;;;;;6.43;3.83;;;;;;;12.87;100.00;98547.13;5122483;27;20018;-82
2022/09/17 09:35:28;;;;;;;8.02;4.75;;;;;;;12.79;100.00;98552.91;5090441;28;20324;-81
2022/09/17 09:38:08;;;;;;;7.80;4.93;;;;;;;12.77;100.00;98564.41;5090475;28;20113;-80
2022/09/17 09:40:45;;;;;;;6.70;4.25;;;;;;;12.76;100.00;98567.97;5074338;28;20024;-81
2022/09/17 09:43:20;;;;;;;6.10;4.22;;;;;;;12.73;100.00;98569.06;5070487;28;20029;-81
2022/09/17 09:46:10;;;;;;;6.82;4.85;;;;;;;12.80;100.00;98564.19;5069749;28;20032;-83
2022/09/17 09:48:37;;;;;;;18.35;16.48;;;;;;;12.84;100.00;98581.31;5070150;28;20113;-83
2022/09/17 09:51:17;;;;;;;20.15;18.02;;;;;;;12.84;100.00;98581.31;5069889;28;20044;-83
2022/09/17 09:54:04;;;;;;;13.00;9.68;;;;;;;12.89;100.00;98571.38;5067976;28;20530;-83
2022/09/17 09:57:04;;;;;;;10.30;7.90;;;;;;;12.95;100.00;98560.47;5058096;28;20041;-83
2022/09/17 09:59:29;;;;;;;16.00;12.07;;;;;;;12.91;100.00;98551.19;5067137;28;20020;-83
2022/09/17 10:01:54;;;;;;;35.35;23.27;;;;;;;13.01;100.00;98567.03;5067901;28;20040;-83
2022/09/17 10:04:25;;;;;;;68.70;52.67;;;;;;;13.00;100.00;98566.19;5049638;28;20117;-83
2022/09/17 10:07:04;;;;;;;;;;;;;;;13.10;100.00;98579.41;5033462;28;20033;-87
2022/09/17 10:09:31;;;;;;;21.48;19.15;;;;;;;13.11;100.00;98581.09;5054288;28;19915;-83
2022/09/17 10:12:09;;;;;;;34.33;30.85;;;;;;;13.09;100.00;98573.34;5106989;28;20024;-82
2022/09/17 10:14:39;;;;;;;8.52;6.25;;;;;;;12.98;100.00;98565.50;5112948;28;20023;-82
2022/09/17 10:17:18;;;;;;;6.13;4.88;;;;;;;13.06;100.00;98583.19;5112894;28;20068;-82
2022/09/17 10:19:45;;;;;;;7.63;4.78;;;;;;;13.03;100.00;98588.66;5112887;28;20471;-82
2022/09/17 10:22:30;;;;;;;7.03;5.25;;;;;;;13.05;100.00;98592.81;5112642;28;20437;-82
2022/09/17 10:24:58;;;;;;;7.10;4.80;;;;;;;13.01;100.00;98606.22;5112786;28;20455;-82
2022/09/17 10:27:25;;;;;;;5.00;4.50;;;;;;;12.95;100.00;98604.91;5111777;28;20042;-82
2022/09/17 10:30:14;;;;;;;8.57;5.53;;;;;;;12.91;100.00;98606.91;5092096;28;20028;-82
2022/09/17 10:32:39;;;;;;;9.65;5.05;;;;;;;12.87;100.00;98608.06;5092349;28;20024;-82
2022/09/17 10:35:25;;;;;;;9.32;5.70;;;;;;;12.89;100.00;98610.56;5092063;28;20081;-82
2022/09/17 10:37:51;;;;;;;9.77;5.43;;;;;;;12.87;100.00;98604.63;5092157;28;20027;-82
2022/09/17 10:40:17;;;;;;;7.05;4.88;;;;;;;12.89;100.00;98605.34;5092270;28;20024;-82
2022/09/17 10:42:43;;;;;;;7.03;4.45;;;;;;;12.89;100.00;98592.28;5092155;28;20069;-82
2022/09/17 10:45:23;;;;;;;9.38;6.57;;;;;;;12.88;100.00;98583.59;5090520;28;20016;-82
2022/09/17 10:47:50;;;;;;;34.28;21.00;;;;;;;12.92;100.00;98594.66;5090801;28;20399;-82
2022/09/17 10:50:16;;;;;;;44.75;34.53;;;;;;;13.04;100.00;98604.22;5091603;28;20032;-82
2022/09/17 10:52:49;;;;;;;24.38;19.30;;;;;;;13.16;100.00;98599.88;5092153;28;20045;-82
2022/09/17 10:55:25;;;;;;;19.80;16.08;;;;;;;13.45;100.00;98595.97;5091807;28;20028;-82
2022/09/17 10:58:09;;;;;;;13.93;11.27;;;;;;;13.87;100.00;98598.88;5092049;28;20020;-82
2022/09/17 11:00:56;;;;;;;10.73;6.78;;;;;;;14.16;98.77;98612.34;5090459;28;20028;-82
2022/09/17 11:03:30;;;;;;;9.55;6.57;;;;;;;14.36;97.77;98599.47;5108433;28;20019;-83
2022/09/17 11:06:44;;;;;;;8.88;5.93;;;;;;;14.50;96.29;98604.50;5110562;28;20044;-83
2022/09/17 11:09:39;;;;;;;7.93;4.43;;;;;;;14.51;94.85;98600.91;5116166;28;20113;-83
2022/09/17 11:12:23;;;;;;;6.53;4.15;;;;;;;14.55;94.61;98597.09;5056448;28;20393;-84
2022/09/17 11:14:50;;;;;;;4.40;3.30;;;;;;;14.60;94.02;98586.25;5073359;28;20080;-83
2022/09/17 11:17:27;;;;;;;6.07;3.72;;;;;;;14.74;93.82;98578.09;5072838;28;20063;-84
2022/09/17 11:20:16;;;;;;;7.93;4.63;;;;;;;14.82;93.10;98577.47;5072917;28;20035;-83
2022/09/17 11:23:06;;;;;;;6.50;3.92;;;;;;;14.82;92.25;98567.00;5073355;28;20109;-84
2022/09/17 11:25:45;;;;;;;6.70;3.80;;;;;;;14.70;92.08;98560.94;5072839;28;20476;-84
2022/09/17 11:28:23;;;;;;;5.85;3.35;;;;;;;14.59;92.37;98553.13;5080208;28;20621;-83
2022/09/17 11:31:05;;;;;;;5.30;3.50;;;;;;;14.55;92.57;98549.09;5086230;28;20025;-82
2022/09/17 11:33:39;;;;;;;5.47;3.45;;;;;;;14.65;92.59;98550.00;5053128;28;20025;-81
2022/09/17 11:36:14;;;;;;;4.13;3.40;;;;;;;14.81;92.12;98546.97;5052514;28;20602;-81
2022/09/17 11:38:46;;;;;;;10.90;6.15;;;;;;;15.12;91.65;98525.13;5052809;28;20074;-83
2022/09/17 11:41:18;;;;;;;16.38;10.50;;;;;;;15.49;91.14;98522.06;5035588;28;20091;-80
2022/09/17 11:44:06;;;;;;;20.33;11.52;;;;;;;15.74;90.72;98531.31;5052479;28;20021;-81
2022/09/17 11:46:48;;;;;;;6.78;3.67;;;;;;;15.70;89.62;98529.91;5012782;28;20037;-82
2022/09/17 11:49:41;;;;;;;46.65;28.95;;;;;;;15.82;89.46;98534.13;5044464;28;20082;-82